Lovejoy, Illinois
Current Conditions -  °F | °C
As of 12:01 PM on Thursday 29 Jan 2015 (Local Time) from KCPS Reporting Station
Overcast Overcast  
Wind Chill: 34°   Ceiling: 2900
Heat Index: 42°   Visibility: 10mi
Dew Point: 32°   Wind: 18mph
Humidity: 67%   Direction: 300°WNW
Pressure: 30.16"   Gusts: 23mph
Location:  38.63°N, 90.15°W
Report Text: KCPS 291801Z 30016G20KT 10SM OVC029 06/00 A3016 RMK AO2 T00560000
Loading
Personal Weather Stations






























Interactive Weather Map New forecast layout! Learn more

10-Day Weather Forecast

Advertisements
Track Severe Weather on mobile